createdAt,value
2018-05-06T00:01:06.567Z,14.6
2018-05-06T00:02:28.967Z,14.6
2018-05-06T00:03:51.312Z,14.5
2018-05-06T00:05:11.139Z,14.6
2018-05-06T00:06:36.024Z,14.6
2018-05-06T00:07:55.839Z,14.5
2018-05-06T00:09:15.682Z,14.5
2018-05-06T00:10:35.507Z,14.5
2018-05-06T00:11:55.325Z,14.5
2018-05-06T00:13:37.955Z,14.6
2018-05-06T00:14:57.809Z,14.6
2018-05-06T00:16:25.267Z,14.6
2018-05-06T00:17:47.656Z,14.5
2018-05-06T00:19:12.583Z,14.4
2018-05-06T00:20:40.026Z,14.5
2018-05-06T00:21:59.844Z,14.5
2018-05-06T00:23:22.283Z,14.6
2018-05-06T00:24:42.109Z,14.5
2018-05-06T00:26:01.950Z,14.5
2018-05-06T00:27:24.352Z,14.4
2018-05-06T00:28:49.231Z,14.3
2018-05-06T00:30:21.720Z,14.4
2018-05-06T00:31:44.127Z,14.4
2018-05-06T00:33:06.488Z,14.4
2018-05-06T00:34:26.318Z,14.4
2018-05-06T00:35:48.725Z,14.2
2018-05-06T00:37:08.553Z,14.1
2018-05-06T00:38:28.397Z,14.2
2018-05-06T00:39:55.829Z,14.2
2018-05-06T00:41:15.655Z,14.2
2018-05-06T00:42:40.569Z,14.1
2018-05-06T00:44:10.511Z,14.1
2018-05-06T00:45:32.896Z,14.3
2018-05-06T00:46:55.297Z,14.1
2018-05-06T00:48:17.700Z,14.2
2018-05-06T00:49:37.560Z,14.1
2018-05-06T00:50:57.404Z,14.1
2018-05-06T00:52:17.245Z,14.1
2018-05-06T00:53:39.615Z,14.1
2018-05-06T00:55:01.966Z,14.1
2018-05-06T00:56:24.366Z,14.1
2018-05-06T00:57:44.230Z,14.1
2018-05-06T00:59:06.634Z,14.1
2018-05-06T01:00:28.991Z,14.1
2018-05-06T01:01:48.805Z,14.2
2018-05-06T01:03:08.627Z,14.2
2018-05-06T01:04:33.511Z,14.1
2018-05-06T01:05:53.337Z,14.1
2018-05-06T01:07:18.217Z,14
2018-05-06T01:08:38.052Z,13.9
2018-05-06T01:09:57.901Z,13.5
2018-05-06T01:11:17.812Z,13.8
2018-05-06T01:12:37.708Z,14
2018-05-06T01:14:07.685Z,14.2
2018-05-06T01:15:35.120Z,13.5
2018-05-06T01:16:54.941Z,14
2018-05-06T01:18:14.779Z,14.1
2018-05-06T01:19:34.626Z,14.1
2018-05-06T01:20:57.041Z,14
2018-05-06T01:22:16.863Z,13.9
2018-05-06T01:23:36.729Z,14
2018-05-06T01:24:56.604Z,13.9
2018-05-06T01:26:16.425Z,13.5
2018-05-06T01:27:36.269Z,13.8
2018-05-06T01:28:56.113Z,13.4
2018-05-06T01:30:15.980Z,13.9
2018-05-06T01:31:40.891Z,14
2018-05-06T01:33:00.738Z,13.6
2018-05-06T01:34:20.562Z,13.5
2018-05-06T01:35:40.404Z,13.8
2018-05-06T01:37:02.797Z,13.8
2018-05-06T01:38:30.208Z,13.8
2018-05-06T01:39:52.672Z,13.9
2018-05-06T01:41:15.034Z,13.7
2018-05-06T01:42:34.860Z,13.8
2018-05-06T01:43:54.679Z,13.6
2018-05-06T01:45:14.517Z,13.7
2018-05-06T01:46:36.887Z,13.7
2018-05-06T01:48:01.780Z,13.7
2018-05-06T01:49:26.689Z,13.7
2018-05-06T01:50:59.242Z,13.8
2018-05-06T01:52:19.122Z,13.7
2018-05-06T01:53:41.491Z,13.9
2018-05-06T01:55:01.345Z,14
2018-05-06T01:56:21.164Z,13.9
2018-05-06T01:57:41.021Z,13.8
2018-05-06T01:59:00.887Z,13.9
2018-05-06T02:00:23.238Z,13.6
2018-05-06T02:01:43.109Z,13.7
2018-05-06T02:03:07.991Z,13.5
2018-05-06T02:04:27.816Z,13.6
2018-05-06T02:05:47.700Z,13.6
2018-05-06T02:07:07.553Z,13.3
2018-05-06T02:08:34.965Z,13.4
2018-05-06T02:09:54.834Z,13.5
2018-05-06T02:11:27.387Z,13.6
2018-05-06T02:12:49.777Z,14
2018-05-06T02:14:14.657Z,14
2018-05-06T02:15:34.477Z,13.9
2018-05-06T02:16:54.294Z,13.9
2018-05-06T02:18:14.125Z,13.9
2018-05-06T02:19:38.996Z,13.8
2018-05-06T02:21:01.337Z,13.8
2018-05-06T02:22:23.745Z,13.8
2018-05-06T02:23:43.569Z,13.8
2018-05-06T02:25:03.411Z,13.8
2018-05-06T02:26:25.758Z,13.7
2018-05-06T02:27:45.609Z,13.8
2018-05-06T02:29:05.496Z,13.9
2018-05-06T02:30:30.438Z,13.7
2018-05-06T02:31:50.257Z,13.8
2018-05-06T02:33:10.091Z,13.7
2018-05-06T02:34:37.592Z,13.6
2018-05-06T02:35:57.436Z,13.6
2018-05-06T02:37:19.800Z,13.6
2018-05-06T02:38:39.669Z,13.7
2018-05-06T02:40:02.041Z,14
2018-05-06T02:41:21.899Z,13.8
2018-05-06T02:42:41.748Z,13.9
2018-05-06T02:44:01.578Z,13.7
2018-05-06T02:45:21.423Z,13.6
2018-05-06T02:46:41.299Z,13.7
2018-05-06T02:48:06.188Z,13.7
2018-05-06T02:49:26.020Z,13.6
2018-05-06T02:50:45.869Z,13.7
2018-05-06T02:52:15.845Z,13.6
2018-05-06T02:53:38.211Z,13.6
2018-05-06T02:54:58.071Z,13.6
2018-05-06T02:56:17.899Z,13.6
2018-05-06T02:57:40.270Z,12.9
2018-05-06T02:59:00.106Z,12.8
2018-05-06T03:00:27.584Z,12.8
2018-05-06T03:01:47.433Z,13
2018-05-06T03:03:07.284Z,12.8
2018-05-06T03:04:27.166Z,12.8
2018-05-06T03:05:52.122Z,12.9
2018-05-06T03:07:11.980Z,12.8
2018-05-06T03:08:31.862Z,12.8
2018-05-06T03:09:54.244Z,12.8
2018-05-06T03:11:21.710Z,13.8
2018-05-06T03:12:41.556Z,13.7
2018-05-06T03:14:03.906Z,13.6
2018-05-06T03:15:28.843Z,13.8
2018-05-06T03:16:51.206Z,13.7
2018-05-06T03:18:18.644Z,13.6
2018-05-06T03:19:48.585Z,13.6
2018-05-06T03:21:16.003Z,13.6
2018-05-06T03:22:35.832Z,13.8
2018-05-06T03:23:58.182Z,13.8
2018-05-06T03:25:18.050Z,13.7
2018-05-06T03:26:37.895Z,13.7
2018-05-06T03:27:57.768Z,13.8
2018-05-06T03:29:22.676Z,13.7
2018-05-06T03:30:42.500Z,13.7
2018-05-06T03:32:02.380Z,13.8
2018-05-06T03:33:27.301Z,13.6
2018-05-06T03:34:47.220Z,13.6
2018-05-06T03:36:14.644Z,13.6
2018-05-06T03:37:34.500Z,13.7
2018-05-06T03:38:54.357Z,13.6
2018-05-06T03:40:19.247Z,13.7
2018-05-06T03:41:41.663Z,13.7
2018-05-06T03:43:01.523Z,13.7
2018-05-06T03:44:26.428Z,13.6
2018-05-06T03:45:51.320Z,13.7
2018-05-06T03:47:11.226Z,13.7
2018-05-06T03:48:31.091Z,13.7
2018-05-06T03:49:50.969Z,13.6
2018-05-06T03:51:23.453Z,13.7
2018-05-06T03:52:43.277Z,13.6
2018-05-06T03:54:03.143Z,13.8
2018-05-06T03:55:22.994Z,13.8
2018-05-06T03:56:42.818Z,13.9
2018-05-06T03:58:02.637Z,13.9
2018-05-06T03:59:22.502Z,13.9
2018-05-06T04:00:42.332Z,13.8
2018-05-06T04:02:07.238Z,13.9
2018-05-06T04:03:27.090Z,13.9
2018-05-06T04:04:49.492Z,13.9
2018-05-06T04:06:09.357Z,13.9
2018-05-06T04:07:29.181Z,13.8
2018-05-06T04:08:49.012Z,13.9
2018-05-06T04:10:08.829Z,13.7
2018-05-06T04:11:31.183Z,13.7
2018-05-06T04:12:56.121Z,13.6
2018-05-06T04:14:15.993Z,13.4
2018-05-06T04:15:45.930Z,13.2
2018-05-06T04:17:10.813Z,13.1
2018-05-06T04:18:30.638Z,13.2
2018-05-06T04:19:55.543Z,13.3
2018-05-06T04:21:15.415Z,13.3
2018-05-06T04:22:40.356Z,13.5
2018-05-06T04:24:00.034Z,13.7
2018-05-06T04:25:22.386Z,13.8
2018-05-06T04:26:44.799Z,13.8
2018-05-06T04:28:07.173Z,13.9
2018-05-06T04:29:27.030Z,13.9
2018-05-06T04:30:46.925Z,13.9
2018-05-06T04:32:14.348Z,13.9
2018-05-06T04:33:34.192Z,13.7
2018-05-06T04:34:54.020Z,13.9
2018-05-06T04:36:13.893Z,14.1
2018-05-06T04:37:33.709Z,14.2
2018-05-06T04:38:53.579Z,14.2
2018-05-06T04:40:13.407Z,13.9
2018-05-06T04:41:33.230Z,13.9
2018-05-06T04:42:55.579Z,13.9
2018-05-06T04:44:28.040Z,14
2018-05-06T04:45:50.352Z,14.1
2018-05-06T04:47:10.187Z,14
2018-05-06T04:48:32.544Z,14.1
2018-05-06T04:49:54.897Z,14
2018-05-06T04:51:14.720Z,14.1
2018-05-06T04:52:37.076Z,14.2
2018-05-06T04:54:04.541Z,14.2
2018-05-06T04:55:31.997Z,14.5
2018-05-06T04:56:51.850Z,14.3
2018-05-06T04:58:16.775Z,13.9
2018-05-06T04:59:46.766Z,13.8
2018-05-06T05:01:06.641Z,13.7
2018-05-06T05:02:26.517Z,13.6
2018-05-06T05:03:46.377Z,13.5
2018-05-06T05:05:06.281Z,13.6
2018-05-06T05:06:31.196Z,14
2018-05-06T05:07:51.085Z,14.1
2018-05-06T05:09:10.955Z,14.2
2018-05-06T05:10:30.827Z,14.1
2018-05-06T05:11:53.235Z,14.2
2018-05-06T05:13:13.074Z,14.2
2018-05-06T05:14:37.957Z,14.2
2018-05-06T05:15:57.789Z,14.2
2018-05-06T05:17:20.207Z,14.2
2018-05-06T05:18:40.045Z,14.1
2018-05-06T05:20:02.404Z,14.1
2018-05-06T05:21:22.247Z,14.2
2018-05-06T05:22:42.065Z,14.1
2018-05-06T05:24:04.445Z,14.1
2018-05-06T05:25:24.288Z,14.2
2018-05-06T05:26:44.168Z,14
2018-05-06T05:28:06.579Z,14.1
2018-05-06T05:29:26.483Z,14.1
2018-05-06T05:30:46.345Z,14.1
2018-05-06T05:32:06.239Z,14
2018-05-06T05:33:26.102Z,14.1
2018-05-06T05:34:48.455Z,13.9
2018-05-06T05:36:08.279Z,13.9
2018-05-06T05:37:28.115Z,14
2018-05-06T05:38:50.480Z,14
2018-05-06T05:40:12.868Z,14.1
2018-05-06T05:41:35.257Z,14.1
2018-05-06T05:42:57.607Z,14.2
2018-05-06T05:44:17.459Z,14.2
2018-05-06T05:45:39.807Z,14.2
2018-05-06T05:47:09.817Z,14.3
2018-05-06T05:48:29.636Z,14.4
2018-05-06T05:49:49.495Z,14.3
2018-05-06T05:51:09.329Z,14.3
2018-05-06T05:52:29.188Z,14.5
2018-05-06T05:53:51.557Z,14.4
2018-05-06T05:55:16.515Z,14.4
2018-05-06T05:56:36.365Z,14.4
2018-05-06T05:57:58.713Z,14.7
2018-05-06T05:59:18.577Z,14.5
2018-05-06T06:00:40.966Z,14.7
2018-05-06T06:02:00.849Z,14.5
2018-05-06T06:03:23.204Z,14.6
2018-05-06T06:04:43.031Z,14.8
2018-05-06T06:06:02.867Z,14.8
2018-05-06T06:07:22.721Z,14.8
2018-05-06T06:08:47.608Z,14.9
2018-05-06T06:10:09.957Z,14.8
2018-05-06T06:11:32.371Z,14.8
2018-05-06T06:12:52.195Z,14.7
2018-05-06T06:14:19.647Z,14.8
2018-05-06T06:15:39.505Z,14.9
2018-05-06T06:17:14.673Z,14.9
2018-05-06T06:18:42.117Z,15
2018-05-06T06:20:09.536Z,15
2018-05-06T06:21:31.905Z,15
2018-05-06T06:22:54.248Z,15
2018-05-06T06:24:14.078Z,15
2018-05-06T06:25:41.529Z,15
2018-05-06T06:27:03.924Z,15.1
2018-05-06T06:28:23.755Z,15
2018-05-06T06:29:48.653Z,15.1
2018-05-06T06:31:08.496Z,14.3
2018-05-06T06:32:33.421Z,15.1
2018-05-06T06:33:53.239Z,13.6
2018-05-06T06:35:13.062Z,15.2
2018-05-06T06:36:50.625Z,15.1
2018-05-06T06:38:15.534Z,14.9
2018-05-06T06:39:37.913Z,15.2
2018-05-06T06:40:57.780Z,15.1
2018-05-06T06:42:22.691Z,14.6
2018-05-06T06:43:45.078Z,14.9
2018-05-06T06:45:07.428Z,15
2018-05-06T06:46:32.357Z,14.8
2018-05-06T06:47:54.763Z,14.9
2018-05-06T06:49:17.140Z,14.8
2018-05-06T06:50:36.968Z,14.9
2018-05-06T06:51:56.791Z,14.9
2018-05-06T06:53:21.680Z,14.9
2018-05-06T06:54:41.533Z,15
2018-05-06T06:56:03.937Z,14.9
2018-05-06T06:57:26.311Z,14.9
2018-05-06T06:58:46.170Z,14.9
2018-05-06T07:00:08.579Z,14.7
2018-05-06T07:01:33.460Z,14.7
2018-05-06T07:02:55.862Z,14.8
2018-05-06T07:04:15.716Z,14.7
2018-05-06T07:05:35.561Z,14.7
2018-05-06T07:06:55.384Z,14.7
2018-05-06T07:08:22.891Z,14.7
2018-05-06T07:09:42.724Z,15.5
2018-05-06T07:11:02.546Z,15.4
2018-05-06T07:12:24.898Z,15.5
2018-05-06T07:13:47.257Z,15.5
2018-05-06T07:15:09.611Z,15.4
2018-05-06T07:16:29.427Z,15.3
2018-05-06T07:17:51.775Z,15.4
2018-05-06T07:19:16.732Z,15.7
2018-05-06T07:20:36.563Z,16
2018-05-06T07:21:58.924Z,16.3
2018-05-06T07:23:23.803Z,16.3
2018-05-06T07:24:43.664Z,16.6
2018-05-06T07:26:03.481Z,16.6
2018-05-06T07:27:25.873Z,16.8
2018-05-06T07:28:45.730Z,16.9
2018-05-06T07:30:15.688Z,17.1
2018-05-06T07:31:40.617Z,17.2
2018-05-06T07:33:00.456Z,17.3
2018-05-06T07:34:20.274Z,17.5
2018-05-06T07:35:52.871Z,17.8
2018-05-06T07:37:22.868Z,17.9
2018-05-06T07:38:42.691Z,18
2018-05-06T07:40:05.044Z,18.2
2018-05-06T07:41:24.944Z,18.4
2018-05-06T07:43:05.033Z,18.5
2018-05-06T07:44:27.384Z,18.4
2018-05-06T07:45:54.843Z,18.8
2018-05-06T07:47:17.204Z,18.8
2018-05-06T07:48:39.579Z,18.5
2018-05-06T07:49:59.467Z,18.5
2018-05-06T07:51:21.815Z,18.7
2018-05-06T07:52:46.756Z,18.7
2018-05-06T07:54:06.626Z,18.7
2018-05-06T07:55:26.499Z,19.1
2018-05-06T07:56:48.860Z,19.1
2018-05-06T07:58:08.682Z,19.2
2018-05-06T07:59:31.068Z,18.9
2018-05-06T08:00:50.943Z,18.8
2018-05-06T08:02:10.810Z,18.7
2018-05-06T08:03:30.661Z,19
2018-05-06T08:04:53.023Z,19
2018-05-06T08:06:12.851Z,19.1
2018-05-06T08:07:45.356Z,19.1
2018-05-06T08:09:05.237Z,19
2018-05-06T08:10:27.595Z,19.1
2018-05-06T08:11:49.997Z,18.9
2018-05-06T08:13:14.892Z,19.1
2018-05-06T08:14:39.778Z,19
2018-05-06T08:15:59.664Z,19
2018-05-06T08:17:19.529Z,19.1
2018-05-06T08:18:41.925Z,19.1
2018-05-06T08:20:01.744Z,18.9
2018-05-06T08:21:31.687Z,18.7
2018-05-06T08:22:51.520Z,19
2018-05-06T08:24:16.411Z,18.9
2018-05-06T08:25:38.771Z,18.7
2018-05-06T08:26:58.695Z,18.7
2018-05-06T08:28:21.071Z,18.6
2018-05-06T08:29:43.421Z,18.5
2018-05-06T08:31:08.362Z,18.4
2018-05-06T08:32:28.215Z,18
2018-05-06T08:33:50.600Z,18.2
2018-05-06T08:35:12.944Z,18.2
2018-05-06T08:36:32.820Z,18.3
2018-05-06T08:37:52.669Z,18.2
2018-05-06T08:39:17.568Z,18.2
2018-05-06T08:40:39.925Z,18.1
2018-05-06T08:41:59.803Z,18.1
2018-05-06T08:43:22.148Z,17.8
2018-05-06T08:44:44.559Z,17.4
2018-05-06T08:46:04.404Z,17.1
2018-05-06T08:47:26.780Z,17.2
2018-05-06T08:48:46.639Z,17.2
2018-05-06T08:50:19.168Z,16.7
2018-05-06T08:51:39.052Z,17.9
2018-05-06T08:53:01.438Z,17.9
2018-05-06T08:54:21.262Z,17.5
2018-05-06T08:56:03.852Z,17.5
2018-05-06T08:57:28.754Z,17.5
2018-05-06T08:58:48.586Z,18.1
2018-05-06T09:00:11.013Z,17.8
2018-05-06T09:01:35.961Z,17.4
2018-05-06T09:03:00.883Z,17
2018-05-06T09:04:25.802Z,17.6
2018-05-06T09:05:45.667Z,17.8
2018-05-06T09:07:08.019Z,17.8
2018-05-06T09:08:35.455Z,17.3
2018-05-06T09:09:55.352Z,17.3
2018-05-06T09:11:20.277Z,17.9
2018-05-06T09:12:40.194Z,18
2018-05-06T09:14:02.547Z,18.1
2018-05-06T09:15:32.538Z,17.9
2018-05-06T09:16:54.943Z,17.6
2018-05-06T09:18:22.349Z,17.7
2018-05-06T09:19:42.251Z,17.7
2018-05-06T09:21:02.071Z,17.6
2018-05-06T09:22:24.413Z,17.5
2018-05-06T09:23:44.283Z,17.5
2018-05-06T09:25:09.166Z,17.2
2018-05-06T09:26:31.516Z,17.4
2018-05-06T09:27:53.882Z,17.4
2018-05-06T09:29:18.754Z,17.4
2018-05-06T09:30:38.581Z,17.5
2018-05-06T09:32:06.043Z,17.4
2018-05-06T09:33:25.900Z,17.3
2018-05-06T09:34:45.773Z,17.3
2018-05-06T09:36:10.684Z,17.3
2018-05-06T09:37:38.183Z,15.2
2018-05-06T09:38:58.050Z,16.8
2018-05-06T09:40:17.866Z,16.6
2018-05-06T09:41:40.259Z,17.1
2018-05-06T09:43:10.254Z,16.9
2018-05-06T09:44:32.606Z,16.3
2018-05-06T09:45:55.020Z,17.2
2018-05-06T09:47:14.900Z,17.2
2018-05-06T09:48:34.710Z,17.2
2018-05-06T09:49:59.675Z,17.2
2018-05-06T09:51:24.607Z,17.2
2018-05-06T09:52:44.431Z,17.1
2018-05-06T09:54:04.314Z,17.1
2018-05-06T09:55:24.131Z,17.1
2018-05-06T09:56:43.997Z,17.1
2018-05-06T09:58:08.910Z,17.1
2018-05-06T09:59:33.797Z,17.1
2018-05-06T10:00:53.661Z,16.9
2018-05-06T10:02:18.551Z,16.7
2018-05-06T10:03:38.425Z,16.6
2018-05-06T10:04:58.263Z,15.7
2018-05-06T10:06:20.642Z,15.6
2018-05-06T10:07:40.494Z,17.1
2018-05-06T10:09:00.389Z,17.2
2018-05-06T10:10:20.244Z,17.2
2018-05-06T10:11:47.691Z,16.9
2018-05-06T10:13:07.553Z,17.4
2018-05-06T10:14:29.943Z,17.5
2018-05-06T10:15:49.825Z,17.4
2018-05-06T10:17:12.247Z,17.4
2018-05-06T10:18:32.113Z,17.4
2018-05-06T10:19:51.943Z,17.5
2018-05-06T10:21:11.777Z,17.5
2018-05-06T10:22:31.655Z,17.7
2018-05-06T10:23:51.493Z,17.4
2018-05-06T10:25:18.922Z,17.3
2018-05-06T10:26:38.769Z,17.3
2018-05-06T10:27:58.658Z,17.3
2018-05-06T10:29:21.054Z,17.3
2018-05-06T10:30:43.409Z,17.3
2018-05-06T10:32:08.346Z,17.2
2018-05-06T10:33:30.736Z,17.3
2018-05-06T10:34:55.649Z,17.2
2018-05-06T10:36:23.069Z,17.3
2018-05-06T10:37:42.951Z,17.2
2018-05-06T10:39:12.922Z,17.2
2018-05-06T10:40:35.301Z,17.2
2018-05-06T10:41:55.151Z,17.2
2018-05-06T10:43:15.001Z,17.2
2018-05-06T10:44:34.894Z,17.3
2018-05-06T10:45:59.948Z,17.3
2018-05-06T10:47:19.864Z,17.2
2018-05-06T10:48:39.790Z,17.2
2018-05-06T10:50:02.193Z,17.2
2018-05-06T10:51:22.239Z,17.3
2018-05-06T10:52:44.619Z,17.3
2018-05-06T10:54:04.485Z,17.4
2018-05-06T10:55:24.330Z,17.3
2018-05-06T10:56:44.208Z,17.3
2018-05-06T10:58:06.570Z,17.4
2018-05-06T10:59:26.383Z,17.4
2018-05-06T11:00:53.834Z,17.4
2018-05-06T11:02:13.654Z,17.3
2018-05-06T11:03:36.009Z,17.3
2018-05-06T11:04:58.368Z,17.3
2018-05-06T11:06:20.791Z,17.4
2018-05-06T11:07:40.613Z,17.4
2018-05-06T11:09:03.011Z,17.4
2018-05-06T11:10:22.976Z,17.2
2018-05-06T11:11:42.812Z,17.3
2018-05-06T11:13:07.744Z,17.5
2018-05-06T11:14:27.569Z,17.5
2018-05-06T11:16:00.056Z,17.4
2018-05-06T11:17:19.912Z,17.5
2018-05-06T11:18:39.762Z,17.7
2018-05-06T11:20:02.171Z,17.9
2018-05-06T11:21:27.078Z,17.8
2018-05-06T11:22:49.442Z,18
2018-05-06T11:24:09.274Z,18.3
2018-05-06T11:25:36.743Z,18.1
2018-05-06T11:26:56.618Z,18.2
2018-05-06T11:28:16.434Z,18.3
2018-05-06T11:29:36.254Z,18.3
2018-05-06T11:30:56.108Z,18.5
2018-05-06T11:32:31.166Z,18.7
2018-05-06T11:33:50.994Z,18.8
2018-05-06T11:35:10.840Z,18.9
2018-05-06T11:36:35.767Z,18.9
2018-05-06T11:37:58.130Z,19.1
2018-05-06T11:39:23.075Z,19.2
2018-05-06T11:40:42.895Z,19.3
2018-05-06T11:42:02.736Z,19.3
2018-05-06T11:43:22.608Z,19.2
2018-05-06T11:44:42.433Z,19.8
2018-05-06T11:46:02.313Z,19.7
2018-05-06T11:47:24.689Z,19.5
2018-05-06T11:48:44.537Z,20.1
2018-05-06T11:50:06.900Z,20.2
2018-05-06T11:51:26.728Z,20.2
2018-05-06T11:52:46.577Z,20.3
2018-05-06T11:54:06.395Z,20.5
2018-05-06T11:55:26.219Z,20.8
2018-05-06T11:56:46.046Z,20.9
2018-05-06T11:58:08.392Z,20.9
2018-05-06T11:59:28.211Z,21
2018-05-06T12:00:50.576Z,21
2018-05-06T12:02:12.959Z,21.1
2018-05-06T12:03:35.359Z,21
2018-05-06T12:04:55.221Z,21
2018-05-06T12:06:15.067Z,21.2
2018-05-06T12:07:37.418Z,21.6
2018-05-06T12:08:59.813Z,22.1
2018-05-06T12:10:19.710Z,22.7
2018-05-06T12:11:39.573Z,23.3
2018-05-06T12:12:59.424Z,23.9
2018-05-06T12:14:19.272Z,24.1
2018-05-06T12:15:39.097Z,24.1
2018-05-06T12:16:58.990Z,24.7
2018-05-06T12:18:18.810Z,24.7
2018-05-06T12:19:41.178Z,24.6
2018-05-06T12:21:03.527Z,24.7
2018-05-06T12:22:23.346Z,24.6
2018-05-06T12:23:48.226Z,24.8
2018-05-06T12:25:08.044Z,24.8
2018-05-06T12:26:35.495Z,24.9
2018-05-06T12:27:55.322Z,24.8
2018-05-06T12:29:15.173Z,24.6
2018-05-06T12:30:35.039Z,24.6
2018-05-06T12:31:54.903Z,24.3
2018-05-06T12:33:14.790Z,24.1
2018-05-06T12:34:34.683Z,24
2018-05-06T12:35:54.534Z,23.8
2018-05-06T12:37:14.388Z,23.8
2018-05-06T12:38:34.235Z,23.4
2018-05-06T12:39:54.124Z,23.4
2018-05-06T12:41:13.944Z,23.2
2018-05-06T12:42:33.823Z,23.1
2018-05-06T12:43:56.163Z,22.9
2018-05-06T12:45:16.032Z,22.8
2018-05-06T12:46:35.873Z,22.7
2018-05-06T12:47:55.686Z,22.7
2018-05-06T12:49:25.671Z,22.7
2018-05-06T12:50:45.562Z,22.6
2018-05-06T12:52:05.392Z,22.5
2018-05-06T12:53:25.225Z,22.4
2018-05-06T12:54:50.111Z,22.3
2018-05-06T12:56:12.463Z,22.3
2018-05-06T12:57:37.360Z,22.2
2018-05-06T12:59:04.797Z,22.1
2018-05-06T13:00:32.215Z,22
2018-05-06T13:01:52.084Z,22
2018-05-06T13:03:11.918Z,22
2018-05-06T13:04:31.738Z,21.9
2018-05-06T13:05:59.178Z,21.8
2018-05-06T13:07:19.065Z,21.8
2018-05-06T13:08:38.900Z,21.8
2018-05-06T13:10:01.307Z,21.8
2018-05-06T13:11:23.691Z,21.8
2018-05-06T13:12:46.112Z,21.7
2018-05-06T13:14:08.457Z,21.7
2018-05-06T13:15:30.842Z,21.7
2018-05-06T13:16:50.689Z,21.8
2018-05-06T13:18:10.565Z,21.8
2018-05-06T13:19:30.385Z,21.7
2018-05-06T13:20:55.300Z,21.7
2018-05-06T13:22:15.139Z,21.8
2018-05-06T13:23:42.562Z,21.7
2018-05-06T13:25:04.973Z,21.7
2018-05-06T13:26:27.319Z,21.7
2018-05-06T13:27:49.780Z,21.6
2018-05-06T13:29:14.684Z,21.7
2018-05-06T13:30:52.247Z,21.6
2018-05-06T13:32:17.120Z,19.8
2018-05-06T13:33:36.943Z,21.7
2018-05-06T13:34:59.387Z,21.5
2018-05-06T13:36:36.919Z,21.4
2018-05-06T13:37:59.322Z,21.3
2018-05-06T13:39:21.723Z,21.2
2018-05-06T13:40:41.540Z,21.3
2018-05-06T13:42:03.915Z,21.3
2018-05-06T13:43:26.265Z,21.4
2018-05-06T13:44:53.675Z,21.2
2018-05-06T13:46:13.553Z,21.2
2018-05-06T13:47:33.380Z,21.2
2018-05-06T13:48:58.258Z,21.2
2018-05-06T13:50:18.107Z,21.1
2018-05-06T13:51:40.499Z,21
2018-05-06T13:53:00.374Z,20.9
2018-05-06T13:54:27.801Z,20.9
2018-05-06T13:56:05.362Z,20.9
2018-05-06T13:57:27.731Z,20.8
2018-05-06T13:58:52.632Z,20.8
2018-05-06T14:00:14.994Z,20.8
2018-05-06T14:01:37.346Z,20.7
2018-05-06T14:02:59.764Z,20.8
2018-05-06T14:04:27.231Z,20.5
2018-05-06T14:05:47.058Z,21.6
2018-05-06T14:07:06.884Z,21.5
2018-05-06T14:08:26.714Z,21.6
2018-05-06T14:09:54.167Z,21.5
2018-05-06T14:11:14.026Z,21.5
2018-05-06T14:12:36.381Z,21.5
2018-05-06T14:13:56.240Z,21.4
2018-05-06T14:15:16.116Z,20.9
2018-05-06T14:16:35.947Z,20.3
2018-05-06T14:17:55.784Z,21.3
2018-05-06T14:19:18.158Z,21.3
2018-05-06T14:20:37.981Z,21.2
2018-05-06T14:21:57.820Z,21.2
2018-05-06T14:23:20.226Z,20.7
2018-05-06T14:24:40.094Z,21.1
2018-05-06T14:25:59.951Z,20.1
2018-05-06T14:27:34.969Z,22
2018-05-06T14:28:57.327Z,21.8
2018-05-06T14:30:19.691Z,21.6
2018-05-06T14:31:44.625Z,21.5
2018-05-06T14:33:09.552Z,21.4
2018-05-06T14:34:29.398Z,20.8
2018-05-06T14:36:09.495Z,22.6
2018-05-06T14:37:29.341Z,22.6
2018-05-06T14:38:49.187Z,22.7
2018-05-06T14:40:09.087Z,23
2018-05-06T14:41:31.462Z,23.1
2018-05-06T14:42:56.366Z,23.2
2018-05-06T14:44:21.262Z,23.3
2018-05-06T14:45:41.095Z,23.2
2018-05-06T14:47:05.982Z,23.2
2018-05-06T14:48:30.973Z,22.8
2018-05-06T14:49:53.436Z,22.7
2018-05-06T14:51:13.311Z,22.6
2018-05-06T14:52:35.660Z,22.5
2018-05-06T14:53:58.033Z,22.2
2018-05-06T14:55:17.887Z,22.2
2018-05-06T14:56:47.818Z,22.1
2018-05-06T14:58:15.301Z,22
2018-05-06T14:59:37.661Z,22
2018-05-06T15:01:05.117Z,21.8
2018-05-06T15:02:24.935Z,21.3
2018-05-06T15:03:44.884Z,21
2018-05-06T15:05:04.731Z,21
2018-05-06T15:06:24.571Z,20.7
2018-05-06T15:07:46.952Z,20.4
2018-05-06T15:09:06.812Z,20.3
2018-05-06T15:10:26.712Z,20.2
2018-05-06T15:11:46.557Z,20.1
2018-05-06T15:13:11.433Z,20.2
2018-05-06T15:14:31.294Z,20
2018-05-06T15:15:53.732Z,19.8
2018-05-06T15:17:13.575Z,19.9
2018-05-06T15:18:33.455Z,19.7
2018-05-06T15:19:53.347Z,19.6
2018-05-06T15:21:13.293Z,19.5
2018-05-06T15:22:35.712Z,19.6
2018-05-06T15:23:55.531Z,19.5
2018-05-06T15:25:15.424Z,19.4
2018-05-06T15:26:37.815Z,19.3
2018-05-06T15:27:57.645Z,19.1
2018-05-06T15:29:22.548Z,18.9
2018-05-06T15:30:42.422Z,19
2018-05-06T15:32:02.269Z,18.8
2018-05-06T15:33:27.207Z,19.1
2018-05-06T15:34:47.083Z,19
2018-05-06T15:36:09.435Z,18.9
2018-05-06T15:37:31.809Z,18.8
2018-05-06T15:38:54.185Z,18.3
2018-05-06T15:40:14.058Z,19
2018-05-06T15:41:33.906Z,18
2018-05-06T15:42:56.287Z,18.1
2018-05-06T15:44:16.112Z,19.2
2018-05-06T15:45:51.127Z,19.1
2018-05-06T15:47:13.559Z,19
2018-05-06T15:48:33.397Z,19
2018-05-06T15:49:53.211Z,19
2018-05-06T15:51:15.612Z,19
2018-05-06T15:52:35.478Z,19.1
2018-05-06T15:53:55.352Z,19
2018-05-06T15:55:15.168Z,18.9
2018-05-06T15:56:35.039Z,18.9
2018-05-06T15:57:54.858Z,18.8
2018-05-06T15:59:14.684Z,18.7
2018-05-06T16:00:37.049Z,18.6
2018-05-06T16:01:56.901Z,18.6
2018-05-06T16:03:24.314Z,18.6
2018-05-06T16:04:44.160Z,18.5
2018-05-06T16:06:04.021Z,18.5
2018-05-06T16:07:23.911Z,18.3
2018-05-06T16:08:56.421Z,18.3
2018-05-06T16:10:21.369Z,18.2
2018-05-06T16:11:48.820Z,18.2
2018-05-06T16:13:11.179Z,18.1
2018-05-06T16:14:43.714Z,18.1
2018-05-06T16:16:03.599Z,18.2
2018-05-06T16:17:28.539Z,18.7
2018-05-06T16:18:48.386Z,18.4
2018-05-06T16:20:08.218Z,18.2
2018-05-06T16:21:28.068Z,17.7
2018-05-06T16:22:50.481Z,17.6
2018-05-06T16:24:12.857Z,17.6
2018-05-06T16:25:35.225Z,18.6
2018-05-06T16:27:02.649Z,18.6
2018-05-06T16:28:25.018Z,18.6
2018-05-06T16:29:47.438Z,18.6
2018-05-06T16:31:07.310Z,18.5
2018-05-06T16:32:27.135Z,18.5
2018-05-06T16:33:49.488Z,18.4
2018-05-06T16:35:09.307Z,18.4
2018-05-06T16:36:31.665Z,18.3
2018-05-06T16:37:51.607Z,18.3
2018-05-06T16:39:14.083Z,18.3
2018-05-06T16:40:33.956Z,16.5
2018-05-06T16:41:58.855Z,18.6
2018-05-06T16:43:18.707Z,18.6
2018-05-06T16:44:41.078Z,18.6
2018-05-06T16:46:00.900Z,18.5
2018-05-06T16:47:25.823Z,18.5
2018-05-06T16:48:45.681Z,18.6
2018-05-06T16:50:05.502Z,18.5
2018-05-06T16:51:30.417Z,18.5
2018-05-06T16:52:50.238Z,18.5
2018-05-06T16:54:10.059Z,18.4
2018-05-06T16:55:29.880Z,18.4
2018-05-06T16:56:49.725Z,18.4
2018-05-06T16:58:12.079Z,18.4
2018-05-06T16:59:34.492Z,18.4
2018-05-06T17:00:56.855Z,18.4
2018-05-06T17:02:19.201Z,18.4
2018-05-06T17:03:41.598Z,18.3
2018-05-06T17:05:01.413Z,18.3
2018-05-06T17:06:23.802Z,18.3
2018-05-06T17:07:46.145Z,18.2
2018-05-06T17:09:11.021Z,18.1
2018-05-06T17:10:35.901Z,18.1
2018-05-06T17:11:55.780Z,18.1
2018-05-06T17:13:20.714Z,18
2018-05-06T17:14:40.648Z,17.9
2018-05-06T17:16:00.472Z,17.9
2018-05-06T17:17:20.296Z,17.7
2018-05-06T17:18:42.656Z,17.9
2018-05-06T17:20:05.031Z,17.9
2018-05-06T17:21:24.860Z,17.9
2018-05-06T17:22:44.737Z,17.9
2018-05-06T17:24:04.563Z,17.9
2018-05-06T17:25:39.579Z,17.9
2018-05-06T17:26:59.445Z,17.9
2018-05-06T17:28:19.266Z,17.9
2018-05-06T17:29:39.090Z,17.9
2018-05-06T17:31:03.983Z,17.8
2018-05-06T17:32:36.499Z,18.1
2018-05-06T17:34:03.921Z,18.1
2018-05-06T17:35:33.899Z,18.1
2018-05-06T17:36:58.833Z,18
2018-05-06T17:38:21.188Z,18
2018-05-06T17:39:41.011Z,18
2018-05-06T17:41:00.863Z,18
2018-05-06T17:42:25.764Z,18
2018-05-06T17:43:45.628Z,18
2018-05-06T17:45:08.060Z,18
2018-05-06T17:46:30.435Z,17.9
2018-05-06T17:47:50.310Z,17.9
2018-05-06T17:49:12.664Z,17.9
2018-05-06T17:50:35.066Z,17.8
2018-05-06T17:51:57.417Z,17.7
2018-05-06T17:53:19.811Z,17.7
2018-05-06T17:54:39.635Z,17.7
2018-05-06T17:56:02.048Z,17.7
2018-05-06T17:57:21.921Z,16.9
2018-05-06T17:58:44.278Z,17.8
2018-05-06T18:00:24.348Z,17.7
2018-05-06T18:01:49.237Z,17.6
2018-05-06T18:03:09.109Z,17.6
2018-05-06T18:04:31.468Z,17.6
2018-05-06T18:05:53.832Z,17.6
2018-05-06T18:07:16.305Z,17.7
2018-05-06T18:08:36.129Z,17.7
2018-05-06T18:09:55.946Z,17.7
2018-05-06T18:11:15.786Z,17.7
2018-05-06T18:12:35.612Z,17.7
2018-05-06T18:13:58.045Z,17.7
2018-05-06T18:15:17.919Z,17.7
2018-05-06T18:16:40.272Z,17.7
2018-05-06T18:18:00.141Z,17.7
2018-05-06T18:19:22.487Z,17.6
2018-05-06T18:20:42.358Z,17.6
2018-05-06T18:22:02.208Z,17.6